createdAt,value
2018-08-25T00:00:47.512Z,59.70
2018-08-25T00:01:49.654Z,59.60
2018-08-25T00:02:51.819Z,59.50
2018-08-25T00:03:54.041Z,59.40
2018-08-25T00:04:56.194Z,59.40
2018-08-25T00:05:58.377Z,59.50
2018-08-25T00:07:00.531Z,59.50
2018-08-25T00:08:02.721Z,59.40
2018-08-25T00:09:07.586Z,59.10
2018-08-25T00:10:09.745Z,59.40
2018-08-25T00:11:11.893Z,58.90
2018-08-25T00:12:14.032Z,59.10
2018-08-25T00:13:16.165Z,58.70
2018-08-25T00:14:18.313Z,58.70
2018-08-25T00:15:20.452Z,59.10
2018-08-25T00:16:22.626Z,58.50
2018-08-25T00:17:24.753Z,58.10
2018-08-25T00:18:26.929Z,58.30
2018-08-25T00:19:29.077Z,58.40
2018-08-25T00:20:31.239Z,58.00
2018-08-25T00:21:33.430Z,57.90
2018-08-25T00:22:35.810Z,58.10
2018-08-25T00:23:37.949Z,58.10
2018-08-25T00:24:40.110Z,58.00
2018-08-25T00:25:42.322Z,57.90
2018-08-25T00:26:44.474Z,58.00
2018-08-25T00:27:46.610Z,58.10
2018-08-25T00:28:48.733Z,57.50
2018-08-25T00:29:50.889Z,57.70
2018-08-25T00:30:58.669Z,57.10
2018-08-25T00:32:00.810Z,57.80
2018-08-25T00:33:02.940Z,57.30
2018-08-25T00:34:05.137Z,57.50
2018-08-25T00:35:07.525Z,57.40
2018-08-25T00:36:09.889Z,57.20
2018-08-25T00:37:12.037Z,57.50
2018-08-25T00:38:14.494Z,57.30
2018-08-25T00:39:16.639Z,57.50
2018-08-25T00:40:18.792Z,57.60
2018-08-25T00:41:21.295Z,57.70
2018-08-25T00:42:23.438Z,57.70
2018-08-25T00:43:25.883Z,57.80
2018-08-25T00:44:28.042Z,57.60
2018-08-25T00:45:30.198Z,57.70
2018-08-25T00:46:32.349Z,57.70
2018-08-25T00:47:34.544Z,57.70
2018-08-25T00:48:36.675Z,57.80
2018-08-25T00:49:38.809Z,57.80
2018-08-25T00:50:40.944Z,57.90
2018-08-25T00:51:43.106Z,57.30
2018-08-25T00:52:45.256Z,57.00
2018-08-25T00:53:47.401Z,56.90
2018-08-25T00:54:49.541Z,57.00
2018-08-25T00:55:51.729Z,56.60
2018-08-25T00:56:53.885Z,56.60
2018-08-25T00:57:56.041Z,56.20
2018-08-25T00:58:58.215Z,56.40
2018-08-25T01:00:00.374Z,55.90
2018-08-25T01:01:03.037Z,56.10
2018-08-25T01:02:05.212Z,55.70
2018-08-25T01:03:07.582Z,55.70
2018-08-25T01:04:09.712Z,55.70
2018-08-25T01:05:11.872Z,55.70
2018-08-25T01:06:14.311Z,55.70
2018-08-25T01:07:16.491Z,55.70
2018-08-25T01:08:18.625Z,55.70
2018-08-25T01:09:20.785Z,55.70
2018-08-25T01:10:22.965Z,55.70
2018-08-25T01:11:25.101Z,55.70
2018-08-25T01:12:27.249Z,55.70
2018-08-25T01:13:29.416Z,55.70
2018-08-25T01:14:31.568Z,55.70
2018-08-25T01:15:34.051Z,55.60
2018-08-25T01:16:36.517Z,56.00
2018-08-25T01:17:38.661Z,56.10
2018-08-25T01:18:40.801Z,56.20
2018-08-25T01:19:42.954Z,56.30
2018-08-25T01:20:46.659Z,56.40
2018-08-25T01:21:48.818Z,56.50
2018-08-25T01:22:50.976Z,56.90
2018-08-25T01:23:53.111Z,56.70
2018-08-25T01:24:55.237Z,56.70
2018-08-25T01:25:57.416Z,56.40
2018-08-25T01:26:59.968Z,56.30
2018-08-25T01:28:02.155Z,56.20
2018-08-25T01:29:04.602Z,56.40
2018-08-25T01:30:06.775Z,56.70
2018-08-25T01:31:08.911Z,56.60
2018-08-25T01:32:11.074Z,56.40
2018-08-25T01:33:13.222Z,56.40
2018-08-25T01:34:15.357Z,56.30
2018-08-25T01:35:17.844Z,56.10
2018-08-25T01:36:19.981Z,56.40
2018-08-25T01:37:22.357Z,56.30
2018-08-25T01:38:24.498Z,56.00
2018-08-25T01:39:26.685Z,56.20
2018-08-25T01:40:28.894Z,56.20
2018-08-25T01:41:31.043Z,56.40
2018-08-25T01:42:33.181Z,56.40
2018-08-25T01:43:35.344Z,56.60
2018-08-25T01:44:37.478Z,57.40
2018-08-25T01:45:39.648Z,56.70
2018-08-25T01:46:41.783Z,56.80
2018-08-25T01:47:44.247Z,56.70
2018-08-25T01:48:46.417Z,56.70
2018-08-25T01:49:48.555Z,56.50
2018-08-25T01:50:51.028Z,56.70
2018-08-25T01:51:53.165Z,56.80
2018-08-25T01:52:55.316Z,56.70
2018-08-25T01:53:57.459Z,57.10
2018-08-25T01:54:59.987Z,57.40
2018-08-25T01:56:02.233Z,57.50
2018-08-25T01:57:04.397Z,57.60
2018-08-25T01:58:07.260Z,57.50
2018-08-25T01:59:09.457Z,57.20
2018-08-25T02:00:11.617Z,57.10
2018-08-25T02:01:13.802Z,56.90
2018-08-25T02:02:16.157Z,57.00
2018-08-25T02:03:18.309Z,56.80
2018-08-25T02:04:20.457Z,56.80
2018-08-25T02:05:22.600Z,56.70
2018-08-25T02:06:24.781Z,56.60
2018-08-25T02:07:26.982Z,56.70
2018-08-25T02:08:29.124Z,56.80
2018-08-25T02:09:31.426Z,56.90
2018-08-25T02:10:33.573Z,57.00
2018-08-25T02:11:35.978Z,56.80
2018-08-25T02:12:38.116Z,56.80
2018-08-25T02:13:40.249Z,56.90
2018-08-25T02:14:42.450Z,56.70
2018-08-25T02:15:44.609Z,56.60
2018-08-25T02:16:46.990Z,56.20
2018-08-25T02:17:49.145Z,56.40
2018-08-25T02:18:51.302Z,56.80
2018-08-25T02:19:53.454Z,57.10
2018-08-25T02:20:55.630Z,57.10
2018-08-25T02:21:57.781Z,57.10
2018-08-25T02:23:00.273Z,57.10
2018-08-25T02:24:02.448Z,56.60
2018-08-25T02:25:05.021Z,56.70
2018-08-25T02:26:07.408Z,57.10
2018-08-25T02:27:09.621Z,56.80
2018-08-25T02:28:11.807Z,57.10
2018-08-25T02:29:14.027Z,57.10
2018-08-25T02:30:16.265Z,56.90
2018-08-25T02:31:18.397Z,57.10
2018-08-25T02:32:20.602Z,57.30
2018-08-25T02:33:22.763Z,57.70
2018-08-25T02:34:24.931Z,57.60
2018-08-25T02:35:27.094Z,58.30
2018-08-25T02:36:29.251Z,58.00
2018-08-25T02:37:31.418Z,58.00
2018-08-25T02:38:33.579Z,58.10
2018-08-25T02:39:35.732Z,58.20
2018-08-25T02:40:37.909Z,58.50
2018-08-25T02:41:40.522Z,58.70
2018-08-25T02:42:42.708Z,58.60
2018-08-25T02:43:44.870Z,58.70
2018-08-25T02:44:47.087Z,58.90
2018-08-25T02:45:49.269Z,59.20
2018-08-25T02:46:51.652Z,59.10
2018-08-25T02:47:54.273Z,59.90
2018-08-25T02:48:56.478Z,59.20
2018-08-25T02:49:58.640Z,59.50
2018-08-25T02:51:01.092Z,59.80
2018-08-25T02:52:03.233Z,59.80
2018-08-25T02:53:05.407Z,59.80
2018-08-25T02:54:07.706Z,60.40
2018-08-25T02:55:09.877Z,59.90
2018-08-25T02:56:12.318Z,59.80
2018-08-25T02:57:14.480Z,59.80
2018-08-25T02:58:16.633Z,59.80
2018-08-25T02:59:19.129Z,59.20
2018-08-25T03:00:21.325Z,59.90
2018-08-25T03:01:23.483Z,58.60
2018-08-25T03:02:25.659Z,58.60
2018-08-25T03:03:27.941Z,58.50
2018-08-25T03:04:30.081Z,58.40
2018-08-25T03:05:32.276Z,58.60
2018-08-25T03:06:34.478Z,58.60
2018-08-25T03:07:36.635Z,58.70
2018-08-25T03:08:38.796Z,58.50
2018-08-25T03:09:40.974Z,58.60
2018-08-25T03:11:52.107Z,58.60
2018-08-25T03:12:54.286Z,58.40
2018-08-25T03:13:56.482Z,58.70
2018-08-25T03:14:58.657Z,58.50
2018-08-25T03:16:00.825Z,58.80
2018-08-25T03:17:03.005Z,59.60
2018-08-25T03:18:05.163Z,58.90
2018-08-25T03:19:07.342Z,59.00
2018-08-25T03:20:09.743Z,59.10
2018-08-25T03:21:11.902Z,59.20
2018-08-25T03:22:14.051Z,59.10
2018-08-25T03:23:16.209Z,59.30
2018-08-25T03:24:19.039Z,59.00
2018-08-25T03:25:21.451Z,58.80
2018-08-25T03:26:23.654Z,58.80
2018-08-25T03:27:26.079Z,58.90
2018-08-25T03:28:28.495Z,58.80
2018-08-25T03:29:30.650Z,58.70
2018-08-25T03:30:32.811Z,58.80
2018-08-25T03:31:35.027Z,58.90
2018-08-25T03:32:37.189Z,58.80
2018-08-25T03:33:39.613Z,58.80
2018-08-25T03:34:41.768Z,59.40
2018-08-25T03:35:43.926Z,58.90
2018-08-25T03:36:46.296Z,58.90
2018-08-25T03:37:48.480Z,59.00
2018-08-25T03:38:50.637Z,58.80
2018-08-25T03:39:52.839Z,59.00
2018-08-25T03:40:55.020Z,59.10
2018-08-25T03:41:57.189Z,58.90
2018-08-25T03:42:59.623Z,58.90
2018-08-25T03:44:01.802Z,59.50
2018-08-25T03:45:03.965Z,59.00
2018-08-25T03:46:06.234Z,58.90
2018-08-25T03:47:08.405Z,58.80
2018-08-25T03:48:10.841Z,58.90
2018-08-25T03:49:12.999Z,59.20
2018-08-25T03:50:15.141Z,59.00
2018-08-25T03:51:17.297Z,58.70
2018-08-25T03:52:19.440Z,58.60
2018-08-25T03:53:21.611Z,58.70
2018-08-25T03:54:23.828Z,58.70
2018-08-25T03:55:26.047Z,58.80
2018-08-25T03:56:29.070Z,58.80
2018-08-25T03:57:31.313Z,58.80
2018-08-25T03:58:33.481Z,58.60
2018-08-25T03:59:35.664Z,58.50
2018-08-25T04:00:37.826Z,58.90
2018-08-25T04:01:40.052Z,58.60
2018-08-25T04:02:42.286Z,58.60
2018-08-25T04:03:44.433Z,58.60
2018-08-25T04:04:46.613Z,58.50
2018-08-25T04:05:48.787Z,58.40
2018-08-25T04:06:50.988Z,58.50
2018-08-25T04:07:53.161Z,58.50
2018-08-25T04:08:55.340Z,58.50
2018-08-25T04:09:57.557Z,58.50
2018-08-25T04:10:59.707Z,58.40
2018-08-25T04:12:01.857Z,58.40
2018-08-25T04:13:04.109Z,58.60
2018-08-25T04:14:06.938Z,58.60
2018-08-25T04:15:09.146Z,58.70
2018-08-25T04:16:11.377Z,58.70
2018-08-25T04:17:13.718Z,58.50
2018-08-25T04:18:16.094Z,58.50
2018-08-25T04:19:19.577Z,59.10
2018-08-25T04:20:21.729Z,58.30
2018-08-25T04:21:23.882Z,58.60
2018-08-25T04:22:26.049Z,58.80
2018-08-25T04:23:28.218Z,57.70
2018-08-25T04:24:30.365Z,57.80
2018-08-25T04:25:32.582Z,58.00
2018-08-25T04:26:34.736Z,57.70
2018-08-25T04:27:36.889Z,57.70
2018-08-25T04:28:39.037Z,58.00
2018-08-25T04:29:41.246Z,58.00
2018-08-25T04:30:43.449Z,58.90
2018-08-25T04:31:45.618Z,59.90
2018-08-25T04:32:47.837Z,59.20
2018-08-25T04:33:49.978Z,59.50
2018-08-25T04:34:52.196Z,59.80
2018-08-25T04:35:54.356Z,59.80
2018-08-25T04:36:56.511Z,59.70
2018-08-25T04:37:58.674Z,59.50
2018-08-25T04:39:00.806Z,58.80
2018-08-25T04:40:02.982Z,58.60
2018-08-25T04:41:05.196Z,58.80
2018-08-25T04:42:07.345Z,58.50
2018-08-25T04:43:09.546Z,57.90
2018-08-25T04:44:11.778Z,58.10
2018-08-25T04:45:13.931Z,57.80
2018-08-25T04:46:16.393Z,57.30
2018-08-25T04:47:18.637Z,57.30
2018-08-25T04:48:20.811Z,57.10
2018-08-25T04:49:23.029Z,58.00
2018-08-25T04:50:25.235Z,57.30
2018-08-25T04:51:27.769Z,57.10
2018-08-25T04:52:29.982Z,57.40
2018-08-25T04:53:32.138Z,57.10
2018-08-25T04:54:34.333Z,57.20
2018-08-25T04:55:36.491Z,57.10
2018-08-25T04:56:38.697Z,57.50
2018-08-25T04:57:40.866Z,58.10
2018-08-25T04:58:43.040Z,57.80
2018-08-25T04:59:45.193Z,57.70
2018-08-25T05:00:47.354Z,57.80
2018-08-25T05:01:49.934Z,58.00
2018-08-25T05:02:52.068Z,58.30
2018-08-25T05:03:54.219Z,58.20
2018-08-25T05:04:56.377Z,58.20
2018-08-25T05:05:58.510Z,58.40
2018-08-25T05:07:00.685Z,58.40
2018-08-25T05:08:03.182Z,59.10
2018-08-25T05:09:07.821Z,58.50
2018-08-25T05:10:09.978Z,58.70
2018-08-25T05:11:12.174Z,58.00
2018-08-25T05:12:14.324Z,58.70
2018-08-25T05:13:16.808Z,58.80
2018-08-25T05:14:19.229Z,58.90
2018-08-25T05:15:21.381Z,59.70
2018-08-25T05:16:23.553Z,59.30
2018-08-25T05:17:25.857Z,59.30
2018-08-25T05:18:28.065Z,59.30
2018-08-25T05:19:30.237Z,59.20
2018-08-25T05:20:32.430Z,59.20
2018-08-25T05:21:34.593Z,58.90
2018-08-25T05:22:36.743Z,58.90
2018-08-25T05:23:38.902Z,58.80
2018-08-25T05:24:41.058Z,59.30
2018-08-25T05:25:43.277Z,58.90
2018-08-25T05:26:45.558Z,58.90
2018-08-25T05:27:47.711Z,59.00
2018-08-25T05:28:50.002Z,58.90
2018-08-25T05:29:52.173Z,58.80
2018-08-25T05:30:54.329Z,58.70
2018-08-25T05:31:56.465Z,58.60
2018-08-25T05:32:58.837Z,58.50
2018-08-25T05:34:01.006Z,58.60
2018-08-25T05:35:03.276Z,58.50
2018-08-25T05:36:05.482Z,58.50
2018-08-25T05:37:07.651Z,58.80
2018-08-25T05:38:09.817Z,58.70
2018-08-25T05:39:11.989Z,58.60
2018-08-25T05:40:14.230Z,58.40
2018-08-25T05:41:16.381Z,58.20
2018-08-25T05:42:19.565Z,58.10
2018-08-25T05:43:21.775Z,59.00
2018-08-25T05:44:23.942Z,58.30
2018-08-25T05:45:26.094Z,58.20
2018-08-25T05:46:28.284Z,58.10
2018-08-25T05:47:30.456Z,58.20
2018-08-25T05:48:33.115Z,58.20
2018-08-25T05:49:35.552Z,58.10
2018-08-25T05:50:38.042Z,58.00
2018-08-25T05:51:40.206Z,57.80
2018-08-25T05:52:42.378Z,57.90
2018-08-25T05:53:44.769Z,58.00
2018-08-25T05:54:46.925Z,58.20
2018-08-25T05:55:49.084Z,57.80
2018-08-25T05:56:51.358Z,58.10
2018-08-25T05:57:53.502Z,58.90
2018-08-25T05:58:55.662Z,58.00
2018-08-25T05:59:57.788Z,57.80
2018-08-25T06:00:59.997Z,57.80
2018-08-25T06:02:02.232Z,57.70
2018-08-25T06:03:04.502Z,57.70
2018-08-25T06:04:06.772Z,57.70
2018-08-25T06:05:08.917Z,58.00
2018-08-25T06:06:11.088Z,58.30
2018-08-25T06:07:13.260Z,57.90
2018-08-25T06:08:15.417Z,58.50
2018-08-25T06:09:17.590Z,57.70
2018-08-25T06:10:20.041Z,57.70
2018-08-25T06:11:22.581Z,57.70
2018-08-25T06:12:24.721Z,57.50
2018-08-25T06:13:27.669Z,57.50
2018-08-25T06:14:29.850Z,58.20
2018-08-25T06:15:31.981Z,57.70
2018-08-25T06:16:34.146Z,57.90
2018-08-25T06:17:36.345Z,57.90
2018-08-25T06:18:38.534Z,58.20
2018-08-25T06:19:40.732Z,57.70
2018-08-25T06:20:42.901Z,58.00
2018-08-25T06:21:45.277Z,58.20
2018-08-25T06:22:47.488Z,58.40
2018-08-25T06:23:49.916Z,58.50
2018-08-25T06:24:52.074Z,58.70
2018-08-25T06:25:54.314Z,58.80
2018-08-25T06:26:56.465Z,58.80
2018-08-25T06:27:58.609Z,58.90
2018-08-25T06:29:01.054Z,59.00
2018-08-25T06:30:03.670Z,58.80
2018-08-25T06:31:05.814Z,59.00
2018-08-25T06:32:08.226Z,58.90
2018-08-25T06:33:10.373Z,59.10
2018-08-25T06:34:12.533Z,58.90
2018-08-25T06:35:15.337Z,59.20
2018-08-25T06:36:17.511Z,58.50
2018-08-25T06:37:19.721Z,58.60
2018-08-25T06:38:21.890Z,58.40
2018-08-25T06:39:24.217Z,58.20
2018-08-25T06:40:26.353Z,57.90
2018-08-25T06:41:28.503Z,57.90
2018-08-25T06:42:31.284Z,57.80
2018-08-25T06:43:33.449Z,58.00
2018-08-25T06:44:35.534Z,57.80
2018-08-25T06:45:37.691Z,58.00
2018-08-25T06:46:39.837Z,57.60
2018-08-25T06:47:41.992Z,57.20
2018-08-25T06:48:44.110Z,57.30
2018-08-25T06:49:46.265Z,57.00
2018-08-25T06:50:48.419Z,57.30
2018-08-25T06:51:50.681Z,57.20
2018-08-25T06:52:52.837Z,57.30
2018-08-25T06:53:54.967Z,57.20
2018-08-25T06:54:57.124Z,57.00
2018-08-25T06:55:59.289Z,56.90
2018-08-25T06:57:01.670Z,57.10
2018-08-25T06:58:03.963Z,57.20
2018-08-25T06:59:06.121Z,57.20
2018-08-25T07:00:08.318Z,57.50
2018-08-25T07:01:10.531Z,57.50
2018-08-25T07:02:12.723Z,57.50
2018-08-25T07:03:14.869Z,57.70
2018-08-25T07:04:17.017Z,57.40
2018-08-25T07:05:19.449Z,57.40
2018-08-25T07:06:21.697Z,57.50
2018-08-25T07:07:24.112Z,57.30
2018-08-25T07:08:26.273Z,57.10
2018-08-25T07:09:28.414Z,56.80
2018-08-25T07:10:30.591Z,56.80
2018-08-25T07:11:32.747Z,56.80
2018-08-25T07:12:34.893Z,56.40
2018-08-25T07:13:37.058Z,57.10
2018-08-25T07:14:39.212Z,56.80
2018-08-25T07:15:41.418Z,56.80
2018-08-25T07:16:43.561Z,56.90
2018-08-25T07:17:45.709Z,56.70
2018-08-25T07:18:48.415Z,56.00
2018-08-25T07:19:50.663Z,56.00
2018-08-25T07:20:52.964Z,55.70
2018-08-25T07:21:55.429Z,56.10
2018-08-25T07:22:57.572Z,56.50
2018-08-25T07:23:59.941Z,56.30
2018-08-25T07:25:02.098Z,56.50
2018-08-25T07:26:04.282Z,56.80
2018-08-25T07:27:06.405Z,56.50
2018-08-25T07:28:08.548Z,56.30
2018-08-25T07:29:10.698Z,56.20
2018-08-25T07:30:12.857Z,56.40
2018-08-25T07:31:15.503Z,55.80
2018-08-25T07:32:17.738Z,56.20
2018-08-25T07:33:19.785Z,56.10
2018-08-25T07:34:22.202Z,56.40
2018-08-25T07:35:24.484Z,56.30
2018-08-25T07:36:26.652Z,56.30
2018-08-25T07:37:28.827Z,56.10
2018-08-25T07:38:30.969Z,55.90
2018-08-25T07:39:33.410Z,56.30
2018-08-25T07:40:35.581Z,56.30
2018-08-25T07:41:37.895Z,55.60
2018-08-25T07:42:40.093Z,56.20
2018-08-25T07:43:42.258Z,56.00
2018-08-25T07:44:44.402Z,56.20
2018-08-25T07:45:46.558Z,56.30
2018-08-25T07:46:48.740Z,56.20
2018-08-25T07:47:50.953Z,56.00
2018-08-25T07:48:53.170Z,55.70
2018-08-25T07:49:55.317Z,55.70
2018-08-25T07:50:57.780Z,55.60
2018-08-25T07:53:29.270Z,55.60
2018-08-25T07:54:31.563Z,56.00
2018-08-25T07:55:33.709Z,56.40
2018-08-25T07:56:35.919Z,55.80
2018-08-25T07:57:38.078Z,56.10
2018-08-25T07:58:40.630Z,56.10
2018-08-25T07:59:42.741Z,56.20
2018-08-25T08:00:44.877Z,55.90
2018-08-25T08:01:47.097Z,56.00
2018-08-25T08:02:49.266Z,55.80
2018-08-25T08:03:51.432Z,56.10
2018-08-25T08:04:53.738Z,55.80
2018-08-25T08:05:56.070Z,56.00
2018-08-25T08:06:58.249Z,56.20
2018-08-25T08:08:00.386Z,56.10
2018-08-25T08:09:03.253Z,56.20
2018-08-25T08:10:05.698Z,55.80
2018-08-25T08:11:07.863Z,55.60
2018-08-25T08:12:10.083Z,56.10
2018-08-25T08:13:12.236Z,55.80
2018-08-25T08:14:14.393Z,55.70
2018-08-25T08:15:16.841Z,55.70
2018-08-25T08:16:18.977Z,55.70
2018-08-25T08:17:21.153Z,55.70
2018-08-25T08:18:23.299Z,55.50
2018-08-25T08:19:25.794Z,55.90
2018-08-25T08:20:28.030Z,56.40
2018-08-25T08:21:30.171Z,55.70
2018-08-25T08:22:32.326Z,55.80
2018-08-25T08:23:34.478Z,55.80
2018-08-25T08:24:36.645Z,55.70
2018-08-25T08:25:38.785Z,55.80
2018-08-25T08:26:41.156Z,55.70
2018-08-25T08:27:43.358Z,55.70
2018-08-25T08:28:45.798Z,55.70
2018-08-25T08:29:47.930Z,55.70
2018-08-25T08:30:50.086Z,55.70
2018-08-25T08:31:52.231Z,55.70
2018-08-25T08:32:54.510Z,55.80
2018-08-25T08:33:56.593Z,55.80
2018-08-25T08:34:58.773Z,55.90
2018-08-25T08:36:00.930Z,56.00
2018-08-25T08:37:03.089Z,55.80
2018-08-25T08:38:05.333Z,55.90
2018-08-25T08:39:08.580Z,55.80
2018-08-25T08:40:10.741Z,55.90
2018-08-25T08:41:12.942Z,55.70
2018-08-25T08:42:15.215Z,55.70
2018-08-25T08:43:18.137Z,55.80
2018-08-25T08:44:20.301Z,55.50
2018-08-25T08:45:22.543Z,55.40
2018-08-25T08:46:30.582Z,55.40
2018-08-25T08:47:32.776Z,55.50
2018-08-25T08:48:34.873Z,55.10
2018-08-25T08:49:46.455Z,55.60
2018-08-25T08:50:39.264Z,54.30
2018-08-25T08:51:41.474Z,54.80
2018-08-25T08:52:43.939Z,54.80
2018-08-25T08:53:46.090Z,54.70
2018-08-25T08:54:48.301Z,54.60
2018-08-25T08:55:50.505Z,54.50
2018-08-25T08:56:52.717Z,54.30
2018-08-25T08:57:55.180Z,54.10
2018-08-25T08:58:57.472Z,54.30
2018-08-25T08:59:59.700Z,54.10
2018-08-25T09:01:02.325Z,54.10
2018-08-25T09:02:04.949Z,54.60
2018-08-25T09:03:07.130Z,54.50
2018-08-25T09:04:09.563Z,54.50
2018-08-25T09:05:12.142Z,54.40
2018-08-25T09:06:14.293Z,54.70
2018-08-25T09:07:16.443Z,53.80
2018-08-25T09:08:18.814Z,53.80
2018-08-25T09:09:20.965Z,54.50
2018-08-25T09:10:23.170Z,53.80
2018-08-25T09:11:25.441Z,53.90
2018-08-25T09:12:27.977Z,54.10
2018-08-25T09:13:30.200Z,54.10
2018-08-25T09:14:32.359Z,53.80
2018-08-25T09:15:34.525Z,53.70
2018-08-25T09:16:36.692Z,54.30
2018-08-25T09:17:38.837Z,52.90
2018-08-25T09:18:40.999Z,51.10
2018-08-25T09:19:43.368Z,51.60
2018-08-25T09:20:45.515Z,51.70
2018-08-25T09:21:47.964Z,52.40
2018-08-25T09:22:50.407Z,51.30
2018-08-25T09:23:52.772Z,51.60
2018-08-25T09:24:55.242Z,52.50
2018-08-25T09:25:57.477Z,52.00
2018-08-25T09:26:59.653Z,52.20
2018-08-25T09:28:01.937Z,52.20
2018-08-25T09:29:05.014Z,52.70
2018-08-25T09:30:07.885Z,52.00
2018-08-25T09:31:10.053Z,52.20
2018-08-25T09:32:12.505Z,52.00
2018-08-25T09:33:14.665Z,52.50
2018-08-25T09:34:16.826Z,52.00
2018-08-25T09:35:19.167Z,52.70
2018-08-25T09:36:21.753Z,52.50
2018-08-25T09:37:23.873Z,52.60
2018-08-25T09:38:26.038Z,52.60
2018-08-25T09:39:28.265Z,52.60
2018-08-25T09:40:30.433Z,52.60
2018-08-25T09:41:34.012Z,52.50
2018-08-25T09:42:36.202Z,52.80
2018-08-25T09:43:38.404Z,52.80
2018-08-25T09:44:40.618Z,52.20
2018-08-25T09:45:42.824Z,52.40
2018-08-25T09:46:45.044Z,53.20
2018-08-25T09:47:47.223Z,53.20
2018-08-25T09:48:49.434Z,52.90
2018-08-25T09:49:51.632Z,53.00
2018-08-25T09:50:56.609Z,53.00
2018-08-25T09:52:02.451Z,53.10
2018-08-25T09:53:04.764Z,53.10
2018-08-25T09:54:06.947Z,52.80
2018-08-25T09:55:09.101Z,54.70
2018-08-25T09:56:11.276Z,53.10
2018-08-25T09:57:13.423Z,53.80
2018-08-25T09:58:15.572Z,53.50
2018-08-25T09:59:17.790Z,54.50
2018-08-25T10:00:19.945Z,53.60
2018-08-25T10:01:27.938Z,53.70
2018-08-25T10:02:30.333Z,53.40
2018-08-25T10:03:33.693Z,53.90
2018-08-25T10:04:35.926Z,54.00
2018-08-25T10:05:38.335Z,54.30
2018-08-25T10:06:40.520Z,54.30
2018-08-25T10:07:42.653Z,54.40
2018-08-25T10:08:44.819Z,54.90
2018-08-25T10:09:46.991Z,54.40
2018-08-25T10:10:49.575Z,54.80
2018-08-25T10:11:51.817Z,54.90
2018-08-25T10:12:53.978Z,55.10
2018-08-25T10:13:56.117Z,54.90
2018-08-25T10:14:58.271Z,55.30
2018-08-25T10:16:00.392Z,55.90
2018-08-25T10:17:02.558Z,55.70
2018-08-25T10:18:04.707Z,56.10
2018-08-25T10:19:06.911Z,56.10
2018-08-25T10:20:09.098Z,56.10
2018-08-25T10:21:11.273Z,56.20
2018-08-25T10:22:13.454Z,56.10
2018-08-25T10:23:15.634Z,56.10
2018-08-25T10:24:17.830Z,56.10
2018-08-25T10:25:19.982Z,56.10
2018-08-25T10:26:22.116Z,56.10
2018-08-25T10:27:24.533Z,56.00
2018-08-25T10:28:26.712Z,57.30
2018-08-25T10:29:29.084Z,56.00
2018-08-25T10:30:31.286Z,56.10
2018-08-25T10:31:33.458Z,56.70
2018-08-25T10:32:35.602Z,56.70
2018-08-25T10:33:37.745Z,57.70
2018-08-25T10:34:39.915Z,57.10
2018-08-25T10:35:42.082Z,57.40
2018-08-25T10:36:44.238Z,57.50
2018-08-25T10:37:46.414Z,57.50
2018-08-25T10:38:48.823Z,57.20
2018-08-25T10:39:51.005Z,57.80
2018-08-25T10:40:53.158Z,57.90
2018-08-25T10:41:55.725Z,57.80
2018-08-25T10:42:57.700Z,58.00
2018-08-25T10:43:59.849Z,57.80
2018-08-25T10:45:02.014Z,57.60
2018-08-25T10:46:04.236Z,57.70
2018-08-25T10:47:06.677Z,58.60
2018-08-25T10:48:08.879Z,58.80
2018-08-25T10:49:11.014Z,58.10
2018-08-25T10:50:13.186Z,58.20
2018-08-25T10:51:15.349Z,58.70
2018-08-25T10:52:17.546Z,57.90
2018-08-25T10:53:19.973Z,58.00
2018-08-25T10:54:22.126Z,58.10
2018-08-25T10:55:24.365Z,58.40
2018-08-25T10:56:26.543Z,58.70
2018-08-25T10:57:28.730Z,58.90
2018-08-25T10:58:30.881Z,58.80
2018-08-25T10:59:33.018Z,59.20
2018-08-25T11:00:35.199Z,59.10
2018-08-25T11:01:37.324Z,59.10
2018-08-25T11:02:39.472Z,59.10
2018-08-25T11:03:41.633Z,59.00
2018-08-25T11:04:43.800Z,59.00
2018-08-25T11:05:45.993Z,59.40
2018-08-25T11:06:48.148Z,59.70
2018-08-25T11:07:50.317Z,60.10
2018-08-25T11:08:52.531Z,60.00
2018-08-25T11:09:54.653Z,60.00
2018-08-25T11:10:56.815Z,60.00
2018-08-25T11:11:58.989Z,60.70
2018-08-25T11:13:01.143Z,60.40
2018-08-25T11:14:03.362Z,60.40
2018-08-25T11:15:05.544Z,61.20
2018-08-25T11:16:07.706Z,61.40
2018-08-25T11:17:09.854Z,61.60
2018-08-25T11:18:12.007Z,62.80
2018-08-25T11:19:14.145Z,63.30
2018-08-25T11:20:16.301Z,63.50
2018-08-25T11:21:18.498Z,63.20
2018-08-25T11:22:20.677Z,64.60
2018-08-25T11:23:22.830Z,64.50
2018-08-25T11:24:24.992Z,65.00
2018-08-25T11:25:27.143Z,65.10
2018-08-25T11:26:29.373Z,65.70
2018-08-25T11:27:31.597Z,63.90
2018-08-25T11:28:33.794Z,63.70
2018-08-25T11:29:35.942Z,64.00
2018-08-25T11:30:38.128Z,65.00
2018-08-25T11:31:40.574Z,65.00
2018-08-25T11:32:43.029Z,65.00
2018-08-25T11:33:45.170Z,65.20
2018-08-25T11:34:47.321Z,64.90
2018-08-25T11:35:49.801Z,64.20
2018-08-25T11:36:52.629Z,64.60
2018-08-25T11:37:55.151Z,66.60
2018-08-25T11:38:57.519Z,65.80
2018-08-25T11:39:59.678Z,67.10
2018-08-25T11:41:01.833Z,66.20
2018-08-25T11:42:04.121Z,66.60
2018-08-25T11:43:06.290Z,66.00
2018-08-25T11:44:08.740Z,65.70
2018-08-25T11:45:10.867Z,66.50
2018-08-25T11:46:13.034Z,65.90
2018-08-25T11:47:16.553Z,65.80
2018-08-25T11:48:18.711Z,66.30
2018-08-25T11:49:21.189Z,64.90
2018-08-25T11:50:23.409Z,64.90
2018-08-25T11:51:25.566Z,64.90
2018-08-25T11:52:27.715Z,63.70
2018-08-25T11:53:29.911Z,64.70
2018-08-25T11:54:32.225Z,66.10
2018-08-25T11:55:34.401Z,65.40
2018-08-25T11:56:37.009Z,65.10
2018-08-25T11:57:39.241Z,66.20
2018-08-25T11:58:41.398Z,63.80
2018-08-25T11:59:43.597Z,63.70
2018-08-25T12:00:45.785Z,64.40
2018-08-25T12:01:48.009Z,64.50
2018-08-25T12:02:50.177Z,65.90
2018-08-25T12:03:52.539Z,66.10
2018-08-25T12:04:54.721Z,65.80
2018-08-25T12:05:56.895Z,65.20
2018-08-25T12:06:59.405Z,65.40
2018-08-25T12:08:01.590Z,66.00
2018-08-25T12:09:07.201Z,66.10
2018-08-25T12:10:09.349Z,66.80
2018-08-25T12:11:11.505Z,65.30
2018-08-25T12:12:13.664Z,65.30
2018-08-25T12:13:15.849Z,65.30
2018-08-25T12:14:18.080Z,65.30
2018-08-25T12:15:20.295Z,65.30
2018-08-25T12:16:22.539Z,65.90
2018-08-25T12:17:24.845Z,66.60
2018-08-25T12:18:27.003Z,67.00
2018-08-25T12:19:29.193Z,67.00
2018-08-25T12:20:31.630Z,66.50
2018-08-25T12:21:33.802Z,66.90
2018-08-25T12:22:36.101Z,66.90
2018-08-25T12:23:38.242Z,67.10
2018-08-25T12:24:40.394Z,67.10
2018-08-25T12:25:42.862Z,67.00
2018-08-25T12:26:45.121Z,66.30
2018-08-25T12:27:47.290Z,66.10
2018-08-25T12:28:49.457Z,65.20
2018-08-25T12:29:51.617Z,65.70
2018-08-25T12:30:53.782Z,67.20
2018-08-25T12:31:56.722Z,64.10
2018-08-25T12:32:58.883Z,64.50
2018-08-25T12:34:01.045Z,64.60
2018-08-25T12:35:03.268Z,63.80
2018-08-25T12:36:05.480Z,64.00
2018-08-25T12:37:07.646Z,62.90
2018-08-25T12:38:09.815Z,64.00
2018-08-25T12:39:12.457Z,63.10
2018-08-25T12:40:15.077Z,62.90
2018-08-25T12:41:17.915Z,62.10
2018-08-25T12:42:20.080Z,62.10
2018-08-25T12:43:22.292Z,62.70
2018-08-25T12:44:24.417Z,62.90
2018-08-25T12:45:26.713Z,63.10
2018-08-25T12:46:28.851Z,61.00
2018-08-25T12:47:30.993Z,62.60
2018-08-25T12:48:33.178Z,63.20
2018-08-25T12:49:35.533Z,61.60
2018-08-25T12:50:37.832Z,62.60
2018-08-25T12:51:40.030Z,62.50
2018-08-25T12:52:42.177Z,60.00
2018-08-25T12:53:44.356Z,61.00
2018-08-25T12:54:46.909Z,61.30
2018-08-25T12:55:49.052Z,62.30
2018-08-25T12:56:51.441Z,61.90
2018-08-25T12:57:53.804Z,62.10
2018-08-25T12:58:55.960Z,61.90
2018-08-25T12:59:58.414Z,61.80
2018-08-25T13:01:00.557Z,61.40
2018-08-25T13:02:02.736Z,62.30
2018-08-25T13:03:04.985Z,62.80
2018-08-25T13:04:07.133Z,61.80
2018-08-25T13:05:09.505Z,62.30
2018-08-25T13:06:11.795Z,62.80
2018-08-25T13:07:14.489Z,62.00
2018-08-25T13:08:17.102Z,61.80
2018-08-25T13:09:19.250Z,61.50
2018-08-25T13:10:21.382Z,61.30
2018-08-25T13:11:23.545Z,61.70
2018-08-25T13:12:25.719Z,61.60
2018-08-25T13:13:27.890Z,61.30
2018-08-25T13:14:30.365Z,60.10
2018-08-25T13:15:32.542Z,60.00
2018-08-25T13:16:34.741Z,60.70
2018-08-25T13:17:36.941Z,61.80
2018-08-25T13:18:39.286Z,61.60
2018-08-25T13:19:41.538Z,61.40
2018-08-25T13:20:43.742Z,61.20
2018-08-25T13:21:45.903Z,61.30
2018-08-25T13:22:48.070Z,61.50
2018-08-25T13:23:50.222Z,61.30
2018-08-25T13:24:52.392Z,61.20